Time;durP1;ratioP1;P1;durP2;ratioP2;P2;SDS_P1;SDS_P2;PMS_P1;PMS_P2;Temp;Humidity;BMP_temperature;BMP_pressure;BME280_temperature;BME280_humidity;BME280_pressure;Samples;Min_cycle;Max_cycle;Signal;HPM_P1;HPM_P2
2023/03/19 00:02:20;;;;;;;6.57;5.97;;;12.80;68.70;;;;;;5040905;28;20173;-84
2023/03/19 00:04:46;;;;;;;6.93;6.20;;;12.90;69.20;;;;;;5039148;28;20237;-84
2023/03/19 00:07:12;;;;;;;8.30;6.93;;;12.90;69.60;;;;;;5035016;28;20176;-80
2023/03/19 00:09:38;;;;;;;6.90;6.30;;;12.90;69.80;;;;;;5039559;28;20199;-81
2023/03/19 00:12:05;;;;;;;5.70;5.20;;;12.90;70.50;;;;;;5039026;28;20176;-85
2023/03/19 00:14:30;;;;;;;6.97;6.27;;;13.00;70.60;;;;;;5040366;28;20546;-81
2023/03/19 00:16:56;;;;;;;6.77;6.17;;;13.10;70.20;;;;;;5040044;28;20266;-82
2023/03/19 00:19:21;;;;;;;7.37;6.77;;;13.10;70.00;;;;;;5040772;28;20199;-84
2023/03/19 00:21:47;;;;;;;7.27;6.57;;;13.10;70.50;;;;;;5040050;28;20207;-81
2023/03/19 00:24:13;;;;;;;8.00;6.73;;;13.10;71.00;;;;;;5041315;28;20205;-81
2023/03/19 00:26:39;;;;;;;7.00;6.30;;;13.00;69.60;;;;;;5033618;28;20184;-81
2023/03/19 00:29:05;;;;;;;7.07;6.40;;;13.00;69.10;;;;;;5020470;28;20193;-81
2023/03/19 00:31:30;;;;;;;7.50;6.80;;;12.70;71.60;;;;;;5027580;28;20186;-80
2023/03/19 00:33:57;;;;;;;7.97;6.47;;;12.50;72.90;;;;;;5039796;28;20182;-80
2023/03/19 00:36:25;;;;;;;7.83;7.13;;;12.60;72.30;;;;;;5039526;28;20176;-82
2023/03/19 00:38:51;;;;;;;7.90;6.50;;;12.60;71.10;;;;;;5038732;28;20626;-82
2023/03/19 00:41:17;;;;;;;8.87;7.10;;;12.40;73.00;;;;;;5039783;28;20221;-85
2023/03/19 00:43:44;;;;;;;8.63;6.97;;;12.30;73.20;;;;;;5045558;28;20183;-82
2023/03/19 00:46:10;;;;;;;8.30;7.03;;;12.30;68.50;;;;;;5037606;28;20257;-82
2023/03/19 00:48:37;;;;;;;7.93;7.13;;;12.10;70.00;;;;;;5037489;28;20216;-84
2023/03/19 00:51:04;;;;;;;7.07;6.17;;;12.10;69.70;;;;;;5037211;28;20200;-81
2023/03/19 00:53:30;;;;;;;6.83;6.23;;;12.30;69.00;;;;;;5037915;28;20251;-81
2023/03/19 00:55:56;;;;;;;6.93;6.23;;;12.40;68.60;;;;;;5038612;28;20197;-80
2023/03/19 00:58:22;;;;;;;7.53;6.33;;;12.40;67.40;;;;;;5038709;28;20218;-82
2023/03/19 01:00:51;;;;;;;7.17;6.53;;;12.30;68.10;;;;;;5038971;28;20182;-83
2023/03/19 01:03:17;;;;;;;7.70;6.90;;;12.20;68.50;;;;;;5039197;28;20606;-82
2023/03/19 01:05:43;;;;;;;6.37;5.80;;;12.30;69.00;;;;;;5038421;28;20199;-81
2023/03/19 01:08:09;;;;;;;7.00;6.30;;;12.40;68.60;;;;;;5039217;28;20764;-80
2023/03/19 01:10:35;;;;;;;7.53;6.10;;;12.40;68.90;;;;;;5033752;28;20192;-81
2023/03/19 01:13:01;;;;;;;7.03;6.43;;;12.60;68.00;;;;;;5019853;28;20200;-82
2023/03/19 01:15:26;;;;;;;7.90;6.53;;;12.60;67.80;;;;;;5019415;28;20179;-81
2023/03/19 01:17:52;;;;;;;7.00;6.40;;;12.60;67.30;;;;;;5021751;28;20208;-78
2023/03/19 01:20:19;;;;;;;8.27;6.30;;;12.40;67.00;;;;;;5025396;28;20192;-80
2023/03/19 01:22:45;;;;;;;7.13;6.43;;;12.20;67.60;;;;;;5042008;28;20186;-80
2023/03/19 01:25:12;;;;;;;7.37;6.67;;;12.30;69.60;;;;;;5041768;28;20269;-83
2023/03/19 01:27:39;;;;;;;7.80;6.13;;;12.20;69.00;;;;;;5043206;28;20181;-81
2023/03/19 01:30:06;;;;;;;6.23;5.60;;;12.10;68.30;;;;;;5042627;28;20268;-79
2023/03/19 01:32:32;;;;;;;6.17;5.50;;;12.00;69.30;;;;;;5034027;28;20250;-82
2023/03/19 01:34:58;;;;;;;6.13;5.63;;;11.80;69.00;;;;;;5042856;28;20195;-81
2023/03/19 01:37:24;;;;;;;7.30;5.53;;;11.70;70.50;;;;;;5042867;28;20195;-82
2023/03/19 01:39:49;;;;;;;6.47;5.77;;;11.60;70.80;;;;;;5047438;28;20577;-80
2023/03/19 01:42:16;;;;;;;6.83;5.60;;;11.50;71.70;;;;;;5040554;28;20197;-82
2023/03/19 01:44:43;;;;;;;5.67;5.17;;;11.50;72.40;;;;;;5040843;28;20764;-84
2023/03/19 01:47:23;;;;;;;6.77;5.67;;;11.50;72.20;;;;;;5040667;28;20179;-83
2023/03/19 01:49:54;;;;;;;6.67;5.40;;;11.50;71.70;;;;;;5041233;28;20257;-82
2023/03/19 01:52:22;;;;;;;6.10;5.50;;;11.60;71.60;;;;;;5040143;28;20178;-82
2023/03/19 01:54:49;;;;;;;6.10;5.50;;;11.50;71.60;;;;;;5039904;28;20858;-81
2023/03/19 01:57:15;;;;;;;5.80;5.30;;;11.60;71.10;;;;;;5020593;28;20710;-82
2023/03/19 01:59:45;;;;;;;5.77;5.27;;;11.60;70.30;;;;;;5021159;28;20226;-82
2023/03/19 02:02:32;;;;;;;5.97;5.37;;;11.70;70.20;;;;;;5039031;28;20192;-85
2023/03/19 02:05:14;;;;;;;7.20;5.73;;;11.80;70.20;;;;;;5040046;28;20200;-82
2023/03/19 02:07:43;;;;;;;6.43;5.37;;;11.90;69.80;;;;;;5041710;28;20267;-78
2023/03/19 02:10:14;;;;;;;7.13;5.10;;;11.80;70.90;;;;;;5040396;28;20177;-83
2023/03/19 02:12:40;;;;;;;5.90;5.40;;;11.80;72.00;;;;;;5039767;28;20182;-81
2023/03/19 02:15:06;;;;;;;5.30;4.90;;;11.80;71.10;;;;;;5040196;28;20188;-80
2023/03/19 02:17:32;;;;;;;6.73;6.03;;;11.90;70.30;;;;;;5039132;28;20654;-81
2023/03/19 02:20:16;;;;;;;6.20;5.60;;;12.00;70.10;;;;;;5043260;28;20550;-81
2023/03/19 02:22:53;;;;;;;6.73;6.10;;;12.10;69.20;;;;;;5022412;28;20177;-81
2023/03/19 02:25:41;;;;;;;6.70;6.00;;;12.10;69.40;;;;;;5022749;28;20205;-83
2023/03/19 02:28:08;;;;;;;5.97;5.47;;;12.10;70.10;;;;;;5021420;28;20302;-81
2023/03/19 02:30:34;;;;;;;6.00;5.07;;;11.90;70.80;;;;;;5019960;28;20209;-81
2023/03/19 02:33:00;;;;;;;6.10;5.53;;;11.80;70.00;;;;;;5020639;28;20183;-81
2023/03/19 02:35:30;;;;;;;8.40;5.40;;;11.90;69.70;;;;;;5047116;28;20191;-83
2023/03/19 02:37:56;;;;;;;7.20;5.60;;;11.90;69.30;;;;;;5037664;28;20306;-84
2023/03/19 02:40:26;;;;;;;8.10;5.50;;;11.80;70.00;;;;;;5036281;28;20204;-79
2023/03/19 02:42:52;;;;;;;5.90;5.40;;;11.70;70.50;;;;;;5038902;28;20192;-82
2023/03/19 02:45:18;;;;;;;6.83;5.83;;;11.80;69.60;;;;;;5036347;28;20206;-84
2023/03/19 02:47:43;;;;;;;5.50;5.00;;;11.70;70.30;;;;;;5035682;28;20186;-82
2023/03/19 02:50:10;;;;;;;6.20;5.30;;;11.80;70.00;;;;;;5036370;28;20593;-82
2023/03/19 02:52:36;;;;;;;6.07;5.40;;;12.00;70.00;;;;;;5036833;28;20185;-83
2023/03/19 02:55:01;;;;;;;6.27;5.67;;;12.10;70.30;;;;;;5036771;28;20406;-82
2023/03/19 02:57:27;;;;;;;5.50;5.00;;;12.20;70.90;;;;;;5036906;28;20194;-80
2023/03/19 02:59:53;;;;;;;5.97;5.37;;;12.20;70.30;;;;;;5035767;28;20197;-82
2023/03/19 03:02:18;;;;;;;6.03;5.50;;;12.10;70.10;;;;;;5037440;28;20181;-84
2023/03/19 03:04:44;;;;;;;5.83;4.87;;;12.10;70.20;;;;;;5038130;28;20213;-82
2023/03/19 03:07:10;;;;;;;5.97;5.43;;;12.10;70.50;;;;;;5038250;28;20274;-80
2023/03/19 03:09:36;;;;;;;7.37;5.13;;;12.20;70.60;;;;;;5029632;28;20738;-81
2023/03/19 03:12:01;;;;;;;5.77;5.27;;;12.10;71.30;;;;;;5018412;28;20204;-81
2023/03/19 03:14:27;;;;;;;7.87;5.47;;;12.20;71.60;;;;;;5018390;28;20187;-85
2023/03/19 03:16:53;;;;;;;5.90;5.30;;;12.20;71.40;;;;;;5017909;28;20248;-83
2023/03/19 03:19:18;;;;;;;6.33;5.00;;;12.20;71.80;;;;;;5018641;28;20217;-81
2023/03/19 03:21:44;;;;;;;6.17;5.57;;;12.20;71.40;;;;;;5038786;28;20282;-84
2023/03/19 03:24:19;;;;;;;6.50;5.90;;;12.10;73.90;;;;;;5038537;28;20215;-82
2023/03/19 03:26:45;;;;;;;5.97;5.37;;;11.90;74.00;;;;;;5038307;28;20585;-80
2023/03/19 03:29:10;;;;;;;5.47;4.97;;;11.90;73.10;;;;;;5038146;28;20259;-83
2023/03/19 03:31:36;;;;;;;5.60;5.10;;;12.00;73.10;;;;;;5044301;28;20217;-81
2023/03/19 03:34:02;;;;;;;5.80;4.93;;;12.00;72.20;;;;;;5043614;28;20235;-85
2023/03/19 03:36:28;;;;;;;5.77;5.17;;;12.00;72.20;;;;;;5038009;28;20180;-81
2023/03/19 03:38:54;;;;;;;6.57;5.60;;;12.00;72.30;;;;;;5035646;28;20853;-82
2023/03/19 03:41:19;;;;;;;5.60;5.03;;;12.00;72.20;;;;;;5035323;28;20256;-83
2023/03/19 03:43:45;;;;;;;5.00;4.60;;;12.00;71.60;;;;;;5035742;28;20722;-81
2023/03/19 03:46:11;;;;;;;5.70;5.20;;;12.10;71.60;;;;;;5035097;28;20274;-82
2023/03/19 03:48:36;;;;;;;5.50;5.00;;;12.10;71.40;;;;;;5035696;28;20205;-85
2023/03/19 03:51:03;;;;;;;5.33;4.93;;;12.10;71.20;;;;;;5016956;28;20187;-82
2023/03/19 03:53:29;;;;;;;6.33;4.73;;;12.10;71.10;;;;;;4998132;28;20992;-79
2023/03/19 03:55:55;;;;;;;6.30;5.70;;;12.20;70.50;;;;;;5015977;28;20180;-83
2023/03/19 03:58:20;;;;;;;5.80;5.30;;;12.20;69.80;;;;;;5015173;28;20224;-80
2023/03/19 04:00:46;;;;;;;5.23;4.73;;;12.10;69.80;;;;;;4999968;28;20194;-81
2023/03/19 04:03:12;;;;;;;5.97;5.37;;;12.20;69.90;;;;;;5018297;28;20176;-83
2023/03/19 04:05:38;;;;;;;6.20;5.50;;;12.30;69.80;;;;;;5020671;28;20206;-81
2023/03/19 04:08:04;;;;;;;6.50;5.27;;;12.30;70.00;;;;;;5017432;28;20205;-83
2023/03/19 04:10:30;;;;;;;5.90;5.33;;;12.20;69.80;;;;;;5031375;28;20190;-83
2023/03/19 04:12:56;;;;;;;5.80;5.30;;;12.30;70.00;;;;;;5037608;28;20180;-83
2023/03/19 04:15:22;;;;;;;5.77;5.20;;;12.30;70.10;;;;;;5036443;28;20197;-83
2023/03/19 04:17:48;;;;;;;6.33;5.40;;;12.30;70.40;;;;;;5036431;28;20322;-84
2023/03/19 04:20:16;;;;;;;5.27;4.77;;;12.30;70.30;;;;;;5028534;28;20187;-80
2023/03/19 04:22:42;;;;;;;5.83;5.33;;;12.20;70.30;;;;;;5035274;28;20187;-80
2023/03/19 04:25:08;;;;;;;6.03;5.43;;;12.20;70.90;;;;;;5035684;28;20209;-86
2023/03/19 04:27:34;;;;;;;6.20;5.50;;;12.10;71.60;;;;;;5044569;28;20588;-81
2023/03/19 04:30:00;;;;;;;5.67;5.17;;;12.00;71.50;;;;;;5022019;28;20285;-83
2023/03/19 04:32:25;;;;;;;5.80;5.20;;;12.10;71.50;;;;;;5030341;28;20179;-83
2023/03/19 04:34:51;;;;;;;5.23;4.80;;;12.10;71.80;;;;;;5015221;28;20373;-82
2023/03/19 04:37:18;;;;;;;5.47;4.97;;;12.10;71.70;;;;;;5014837;28;20241;-82
2023/03/19 04:39:44;;;;;;;5.73;5.23;;;12.10;71.20;;;;;;5021742;28;20231;-80
2023/03/19 04:42:10;;;;;;;6.23;5.63;;;12.20;71.30;;;;;;5016373;28;20236;-86
2023/03/19 04:44:36;;;;;;;6.67;5.47;;;12.10;71.40;;;;;;5029326;28;20218;-81
2023/03/19 04:47:02;;;;;;;6.30;5.50;;;12.00;71.90;;;;;;5035422;28;20183;-81
2023/03/19 04:49:29;;;;;;;5.83;5.27;;;12.00;70.80;;;;;;5034627;28;20374;-80
2023/03/19 04:51:56;;;;;;;5.70;5.20;;;12.00;70.40;;;;;;5035902;28;20167;-85
2023/03/19 04:54:22;;;;;;;5.50;5.00;;;11.90;70.60;;;;;;5035395;28;20675;-84
2023/03/19 04:56:48;;;;;;;6.67;5.00;;;11.90;70.70;;;;;;5035441;28;20250;-82
2023/03/19 04:59:13;;;;;;;5.87;5.00;;;11.80;69.70;;;;;;5034959;28;20752;-83
2023/03/19 05:01:39;;;;;;;5.60;5.07;;;11.70;70.20;;;;;;5016880;28;20210;-81
2023/03/19 05:04:05;;;;;;;6.67;4.63;;;11.70;70.40;;;;;;5000123;28;20189;-83
2023/03/19 05:06:31;;;;;;;5.77;5.07;;;11.60;70.70;;;;;;5026403;28;20233;-82
2023/03/19 05:08:57;;;;;;;5.03;4.53;;;11.60;70.40;;;;;;5036957;28;20197;-82
2023/03/19 05:11:24;;;;;;;5.80;4.63;;;11.70;70.00;;;;;;5018199;28;20262;-83
2023/03/19 05:13:49;;;;;;;6.93;5.20;;;11.70;69.80;;;;;;5031783;28;20193;-81
2023/03/19 05:16:15;;;;;;;5.37;4.90;;;11.80;70.10;;;;;;5037755;28;20189;-81
2023/03/19 05:18:42;;;;;;;6.60;4.50;;;11.80;68.70;;;;;;5037594;28;20583;-83
2023/03/19 05:21:10;;;;;;;4.23;3.93;;;11.80;67.50;;;;;;5031075;28;20194;-81
2023/03/19 05:23:36;;;;;;;5.73;4.63;;;11.80;67.20;;;;;;5040812;28;20235;-83
2023/03/19 05:26:02;;;;;;;5.83;4.50;;;11.70;69.30;;;;;;5035063;28;20221;-86
2023/03/19 05:28:27;;;;;;;5.53;5.03;;;11.60;68.90;;;;;;5036027;28;20207;-83
2023/03/19 05:30:53;;;;;;;4.63;4.20;;;11.60;70.50;;;;;;5030006;28;20188;-83
2023/03/19 05:33:19;;;;;;;5.17;4.70;;;11.60;69.20;;;;;;5024770;28;20222;-81
2023/03/19 05:35:44;;;;;;;4.83;4.27;;;11.50;69.30;;;;;;5021903;28;20374;-83
2023/03/19 05:38:10;;;;;;;6.33;5.30;;;11.50;69.50;;;;;;5023935;28;20220;-81
2023/03/19 05:40:36;;;;;;;5.37;4.87;;;11.50;71.60;;;;;;5023746;28;20263;-83
2023/03/19 05:43:02;;;;;;;8.03;7.23;;;11.60;71.80;;;;;;5026131;28;20193;-82
2023/03/19 05:45:27;;;;;;;8.37;7.67;;;11.70;72.10;;;;;;5025725;28;20631;-84
2023/03/19 05:47:53;;;;;;;8.10;7.30;;;11.80;70.70;;;;;;5028427;28;20394;-81
2023/03/19 05:50:19;;;;;;;8.87;7.97;;;11.80;70.60;;;;;;5027186;28;20598;-82
2023/03/19 05:52:45;;;;;;;6.93;6.27;;;11.90;70.50;;;;;;5026424;28;20181;-81
2023/03/19 05:55:10;;;;;;;6.97;6.37;;;11.90;69.80;;;;;;5026459;28;20191;-81
2023/03/19 05:57:40;;;;;;;9.10;7.97;;;11.90;69.90;;;;;;5008715;28;20274;-82
2023/03/19 06:00:06;;;;;;;6.77;6.20;;;12.00;70.00;;;;;;5028456;28;20218;-81
2023/03/19 06:02:33;;;;;;;6.77;6.23;;;12.00;70.90;;;;;;5028382;28;20188;-82
2023/03/19 06:04:59;;;;;;;7.00;6.30;;;12.00;70.90;;;;;;5036667;28;20276;-81
2023/03/19 06:07:25;;;;;;;7.30;6.63;;;12.00;70.60;;;;;;5036311;28;20266;-83
2023/03/19 06:09:50;;;;;;;7.40;6.03;;;12.00;70.40;;;;;;5037724;28;20209;-81
2023/03/19 06:12:16;;;;;;;6.77;6.17;;;12.00;70.20;;;;;;5038717;28;20214;-84
2023/03/19 06:14:42;;;;;;;6.57;6.07;;;12.10;70.10;;;;;;5016145;28;20194;-81
2023/03/19 06:17:08;;;;;;;6.57;5.77;;;12.10;69.80;;;;;;5020713;28;20221;-82
2023/03/19 06:19:34;;;;;;;5.53;5.03;;;12.10;70.30;;;;;;5043848;28;20265;-82
2023/03/19 06:21:59;;;;;;;5.63;5.10;;;12.10;70.10;;;;;;5019910;28;20186;-82
2023/03/19 06:24:25;;;;;;;6.40;5.00;;;12.20;69.60;;;;;;5035350;28;20229;-84
2023/03/19 06:26:51;;;;;;;5.07;4.67;;;12.20;69.00;;;;;;5018516;28;20600;-82
2023/03/19 06:29:16;;;;;;;7.17;4.87;;;12.30;68.70;;;;;;5017588;28;20211;-79
2023/03/19 06:31:42;;;;;;;6.23;5.13;;;12.40;68.80;;;;;;5024062;28;20181;-80
2023/03/19 06:34:08;;;;;;;8.23;5.77;;;12.40;69.70;;;;;;5010349;28;20179;-80
2023/03/19 06:36:37;;;;;;;5.63;4.90;;;12.40;70.20;;;;;;5025803;28;20235;-83
2023/03/19 06:39:02;;;;;;;6.07;5.50;;;12.40;70.30;;;;;;5028598;28;20608;-83
2023/03/19 06:41:28;;;;;;;6.93;5.50;;;12.40;70.80;;;;;;5025557;28;20196;-86
2023/03/19 06:43:54;;;;;;;6.10;5.53;;;12.50;71.90;;;;;;5031901;28;20426;-81
2023/03/19 06:46:20;;;;;;;5.73;5.23;;;12.30;72.80;;;;;;5028066;28;20204;-87
2023/03/19 06:48:46;;;;;;;6.73;6.03;;;12.30;72.10;;;;;;5029012;28;20205;-83
2023/03/19 06:51:11;;;;;;;6.27;5.73;;;12.30;70.00;;;;;;5009412;28;20193;-81
2023/03/19 06:53:37;;;;;;;6.10;5.60;;;12.30;70.40;;;;;;5032155;28;20215;-81
2023/03/19 06:56:03;;;;;;;7.37;6.07;;;12.30;70.20;;;;;;5013310;28;20565;-83
2023/03/19 06:58:28;;;;;;;6.03;5.53;;;12.20;69.40;;;;;;5029514;28;20215;-82
2023/03/19 07:00:54;;;;;;;6.43;5.80;;;12.20;69.80;;;;;;5033163;28;20227;-80
2023/03/19 07:03:20;;;;;;;5.70;5.10;;;12.10;69.40;;;;;;5030562;28;20237;-84
2023/03/19 07:05:49;;;;;;;6.87;5.90;;;12.10;69.10;;;;;;5032046;28;20196;-82
2023/03/19 07:08:14;;;;;;;7.53;6.23;;;12.30;69.70;;;;;;5008408;28;20196;-83
2023/03/19 07:10:40;;;;;;;7.13;6.43;;;12.30;70.10;;;;;;5028918;28;20185;-81
2023/03/19 07:13:06;;;;;;;7.53;6.13;;;12.30;70.20;;;;;;5034255;28;20181;-85
2023/03/19 07:15:32;;;;;;;9.70;5.83;;;12.20;69.40;;;;;;5038393;28;20220;-83
2023/03/19 07:17:59;;;;;;;8.00;6.13;;;12.30;69.70;;;;;;5042099;28;20212;-83
2023/03/19 07:20:24;;;;;;;7.27;6.47;;;12.20;69.30;;;;;;5039166;28;20686;-79
2023/03/19 07:22:50;;;;;;;8.37;6.10;;;12.40;70.00;;;;;;5040596;28;20182;-83
2023/03/19 07:25:16;;;;;;;7.30;5.40;;;12.40;69.70;;;;;;5039523;28;20631;-85
2023/03/19 07:27:43;;;;;;;6.60;5.80;;;12.50;69.80;;;;;;5034180;28;20871;-81
2023/03/19 07:30:09;;;;;;;6.03;5.50;;;12.60;69.70;;;;;;5032430;28;20172;-83
2023/03/19 07:32:35;;;;;;;6.23;5.63;;;12.60;69.00;;;;;;5027579;28;20204;-81
2023/03/19 07:35:01;;;;;;;6.10;5.23;;;12.60;68.80;;;;;;5027740;28;20185;-82
2023/03/19 07:37:27;;;;;;;5.33;4.83;;;12.60;68.30;;;;;;5029217;28;21607;-80
2023/03/19 07:39:52;;;;;;;5.87;5.37;;;12.70;67.30;;;;;;5039376;28;20207;-80
2023/03/19 07:42:18;;;;;;;6.40;5.60;;;12.70;68.00;;;;;;5057590;28;20172;-83
2023/03/19 07:44:44;;;;;;;14.50;6.63;;;12.90;66.90;;;;;;5030242;28;20205;-80
2023/03/19 07:47:10;;;;;;;6.60;6.00;;;12.90;69.00;;;;;;5021389;28;20213;-81
2023/03/19 07:49:35;;;;;;;6.33;5.73;;;13.00;69.10;;;;;;5029128;28;20279;-82
2023/03/19 07:52:01;;;;;;;6.93;5.63;;;13.10;68.70;;;;;;5040150;28;20201;-82
2023/03/19 07:54:26;;;;;;;6.40;5.80;;;13.10;67.30;;;;;;5017771;28;20275;-81
2023/03/19 07:56:52;;;;;;;9.40;6.30;;;13.00;65.80;;;;;;5034185;28;20176;-83
2023/03/19 07:59:17;;;;;;;7.43;6.73;;;12.90;65.40;;;;;;5031871;28;20212;-82
2023/03/19 08:01:43;;;;;;;6.83;6.23;;;12.80;66.60;;;;;;5031274;28;20250;-83
2023/03/19 08:04:09;;;;;;;6.97;6.37;;;12.90;66.50;;;;;;5035467;28;20822;-80
2023/03/19 08:06:35;;;;;;;5.90;5.40;;;13.00;66.60;;;;;;5026365;28;20606;-81
2023/03/19 08:09:01;;;;;;;7.10;5.23;;;13.10;66.50;;;;;;5032691;28;20762;-81
2023/03/19 08:11:28;;;;;;;6.07;5.20;;;13.30;65.80;;;;;;5034378;28;20180;-79
2023/03/19 08:13:55;;;;;;;6.73;5.30;;;13.50;64.90;;;;;;5039339;28;20182;-83
2023/03/19 08:16:21;;;;;;;5.43;4.93;;;13.60;62.50;;;;;;5025828;28;20181;-84
2023/03/19 08:18:47;;;;;;;6.60;4.77;;;13.70;61.90;;;;;;5015537;28;20204;-84
2023/03/19 08:21:12;;;;;;;4.97;4.57;;;13.70;63.00;;;;;;5026003;28;20484;-81
2023/03/19 08:23:38;;;;;;;5.40;4.90;;;13.80;61.20;;;;;;5024386;28;20194;-81
2023/03/19 08:26:04;;;;;;;5.77;5.13;;;14.00;60.90;;;;;;5033538;28;20212;-83
2023/03/19 08:28:29;;;;;;;7.73;4.63;;;13.90;60.90;;;;;;5004352;28;20209;-83
2023/03/19 08:30:55;;;;;;;5.17;4.73;;;13.80;60.60;;;;;;5030053;28;20627;-83
2023/03/19 08:33:21;;;;;;;5.63;5.13;;;13.90;61.40;;;;;;5032027;28;20188;-82
2023/03/19 08:35:46;;;;;;;5.57;5.07;;;13.90;61.30;;;;;;5036576;28;20203;-82
2023/03/19 08:38:12;;;;;;;4.90;4.50;;;14.00;59.90;;;;;;5034630;28;20197;-84
2023/03/19 08:40:38;;;;;;;6.10;5.03;;;14.20;60.50;;;;;;5041181;28;20191;-84
2023/03/19 08:43:03;;;;;;;6.23;4.77;;;14.50;58.90;;;;;;5037039;28;20188;-83
2023/03/19 08:45:29;;;;;;;5.20;4.03;;;14.50;59.60;;;;;;5018455;28;20212;-85
2023/03/19 08:47:56;;;;;;;4.77;4.20;;;14.70;57.40;;;;;;5035885;28;20290;-81
2023/03/19 08:50:22;;;;;;;6.17;4.63;;;14.70;55.20;;;;;;5025836;28;20185;-81
2023/03/19 08:52:48;;;;;;;5.27;4.77;;;14.70;57.50;;;;;;5017382;28;20188;-84
2023/03/19 08:55:15;;;;;;;5.20;4.10;;;14.70;58.20;;;;;;5034893;28;20188;-80
2023/03/19 08:57:40;;;;;;;4.83;4.40;;;14.60;58.30;;;;;;5049934;28;20188;-82
2023/03/19 09:00:07;;;;;;;4.97;4.57;;;14.60;59.90;;;;;;5009894;28;20607;-82
2023/03/19 09:02:33;;;;;;;5.00;4.57;;;14.80;59.20;;;;;;5032626;28;20818;-80
2023/03/19 09:04:59;;;;;;;6.03;3.87;;;14.90;58.80;;;;;;5026980;28;20257;-82
2023/03/19 09:07:24;;;;;;;4.27;3.87;;;14.90;58.50;;;;;;5037792;28;20181;-81
2023/03/19 09:09:50;;;;;;;5.60;4.30;;;14.80;59.60;;;;;;5034466;28;20710;-82
2023/03/19 09:12:16;;;;;;;4.80;4.20;;;14.80;59.40;;;;;;5016623;28;20195;-81
2023/03/19 09:14:42;;;;;;;5.23;4.37;;;14.80;58.60;;;;;;5027497;28;20260;-83
2023/03/19 09:17:09;;;;;;;4.60;4.10;;;14.80;58.70;;;;;;5019494;28;20193;-83
2023/03/19 09:19:35;;;;;;;4.67;4.27;;;15.00;57.70;;;;;;5024226;28;20224;-82
2023/03/19 09:22:02;;;;;;;7.13;4.33;;;15.20;57.40;;;;;;5041350;28;20446;-87
2023/03/19 09:24:27;;;;;;;5.83;4.67;;;15.40;58.50;;;;;;5037155;28;20255;-82
2023/03/19 09:26:53;;;;;;;5.60;4.30;;;15.80;56.10;;;;;;5021360;28;20185;-84
2023/03/19 09:29:19;;;;;;;4.80;4.40;;;15.90;53.90;;;;;;5036909;28;20213;-82
2023/03/19 09:31:45;;;;;;;5.97;4.40;;;16.00;55.00;;;;;;5025000;28;20232;-83
2023/03/19 09:34:12;;;;;;;6.03;3.80;;;16.30;54.00;;;;;;5021213;28;20169;-81
2023/03/19 09:36:38;;;;;;;4.20;3.90;;;16.40;54.50;;;;;;5025628;28;20189;-82
2023/03/19 09:39:05;;;;;;;4.80;3.80;;;16.50;54.80;;;;;;5027459;28;20203;-85
2023/03/19 09:41:45;;;;;;;5.17;4.33;;;16.80;53.90;;;;;;5029147;28;20586;-82
2023/03/19 09:44:31;;;;;;;6.07;4.47;;;16.60;50.40;;;;;;5030889;28;20197;-81
2023/03/19 09:47:22;;;;;;;5.50;3.70;;;16.70;50.30;;;;;;5029075;28;20973;-83
2023/03/19 09:49:50;;;;;;;6.13;3.43;;;16.90;52.10;;;;;;5029480;28;20213;-86
2023/03/19 09:52:18;;;;;;;5.17;3.43;;;16.90;50.80;;;;;;5033897;28;20204;-83
2023/03/19 09:54:51;;;;;;;5.17;3.60;;;16.80;49.20;;;;;;5032106;28;20178;-83
2023/03/19 09:57:18;;;;;;;5.17;3.73;;;17.00;47.90;;;;;;5031001;28;20257;-84
2023/03/19 09:59:44;;;;;;;4.57;3.30;;;17.20;48.40;;;;;;5027958;28;20223;-81
2023/03/19 10:02:30;;;;;;;4.07;3.50;;;17.30;46.70;;;;;;5030052;28;20177;-86
2023/03/19 10:05:26;;;;;;;3.47;3.17;;;17.30;46.10;;;;;;5030576;28;20202;-85
2023/03/19 10:08:02;;;;;;;3.93;3.30;;;17.20;46.00;;;;;;5026479;28;20351;-85
2023/03/19 10:10:27;;;;;;;6.27;4.87;;;17.60;47.30;;;;;;5025988;28;20174;-85
2023/03/19 10:12:53;;;;;;;4.47;3.33;;;17.70;47.70;;;;;;5026192;28;20197;-81
2023/03/19 10:15:28;;;;;;;3.60;3.30;;;17.70;45.80;;;;;;5031716;28;20269;-84
2023/03/19 10:18:00;;;;;;;4.77;4.00;;;17.90;46.20;;;;;;5027926;28;20214;-86
2023/03/19 10:20:45;;;;;;;5.50;3.50;;;17.90;46.50;;;;;;5024605;28;20192;-86
2023/03/19 10:23:36;;;;;;;4.67;3.57;;;17.90;45.80;;;;;;5025207;28;20190;-82
2023/03/19 10:26:07;;;;;;;6.00;3.77;;;18.30;44.20;;;;;;5024757;28;20749;-82
2023/03/19 10:28:33;;;;;;;6.53;3.43;;;18.20;43.70;;;;;;5025047;28;20209;-84
2023/03/19 10:31:24;;;;;;;5.13;3.33;;;17.90;44.30;;;;;;5026601;28;20231;-81
2023/03/19 10:34:02;;;;;;;4.40;3.30;;;17.60;46.00;;;;;;5029402;28;20181;-89
2023/03/19 10:36:34;;;;;;;3.67;3.37;;;17.50;46.70;;;;;;5030312;28;20277;-81
2023/03/19 10:39:00;;;;;;;3.67;3.37;;;17.30;47.00;;;;;;5029426;28;20216;-82
2023/03/19 10:42:10;;;;;;;5.57;3.03;;;17.30;45.70;;;;;;5028862;28;20193;-80
2023/03/19 10:45:08;;;;;;;4.33;3.60;;;17.40;45.70;;;;;;5006309;28;20702;-83
2023/03/19 10:47:42;;;;;;;4.30;3.10;;;17.40;46.40;;;;;;5027427;28;20203;-81
2023/03/19 10:50:18;;;;;;;4.57;3.67;;;17.00;48.60;;;;;;5022900;28;20274;-82
2023/03/19 10:52:50;;;;;;;6.17;3.67;;;17.00;48.10;;;;;;5030154;28;20218;-83
2023/03/19 10:55:23;;;;;;;3.50;3.20;;;17.00;47.40;;;;;;5029944;28;20200;-84
2023/03/19 10:58:01;;;;;;;4.87;3.60;;;17.00;47.80;;;;;;5026220;28;20189;-80
2023/03/19 11:00:32;;;;;;;4.13;3.73;;;16.80;47.60;;;;;;5026127;28;20193;-85
2023/03/19 11:02:58;;;;;;;4.60;3.50;;;17.00;48.30;;;;;;5032100;28;20201;-85
2023/03/19 11:05:28;;;;;;;3.93;3.63;;;17.00;46.80;;;;;;5028655;28;20231;-83
2023/03/19 11:08:18;;;;;;;4.37;3.93;;;16.70;46.90;;;;;;5025499;28;20225;-84
2023/03/19 11:10:47;;;;;;;6.67;4.10;;;16.50;48.10;;;;;;5023567;28;20189;-86
2023/03/19 11:13:24;;;;;;;4.07;3.67;;;16.40;50.60;;;;;;5026189;28;20679;-83
2023/03/19 11:15:52;;;;;;;4.37;3.50;;;16.40;49.70;;;;;;5029120;28;20617;-84
2023/03/19 11:18:23;;;;;;;4.57;3.73;;;16.50;49.90;;;;;;5026839;28;20207;-84
2023/03/19 11:21:03;;;;;;;7.10;4.07;;;16.60;51.30;;;;;;5024604;28;20188;-82
2023/03/19 11:23:36;;;;;;;8.33;3.80;;;16.60;50.70;;;;;;5026659;28;20254;-83
2023/03/19 11:26:02;;;;;;;3.97;3.67;;;16.60;50.90;;;;;;5030045;28;20263;-84
2023/03/19 11:28:32;;;;;;;3.93;3.43;;;16.80;50.30;;;;;;5028368;28;20209;-82
2023/03/19 11:31:05;;;;;;;5.20;3.60;;;17.00;50.90;;;;;;5006700;28;20678;-80
2023/03/19 11:33:45;;;;;;;3.97;3.57;;;17.30;51.10;;;;;;5031143;28;20181;-85
2023/03/19 11:36:29;;;;;;;3.90;3.60;;;17.50;48.30;;;;;;5030810;28;20200;-83
2023/03/19 11:39:19;;;;;;;6.93;4.30;;;17.70;47.20;;;;;;5027989;28;20217;-84
2023/03/19 11:41:55;;;;;;;5.80;3.97;;;17.90;47.30;;;;;;5031887;28;20721;-86
2023/03/19 11:44:28;;;;;;;4.47;3.50;;;17.90;47.70;;;;;;5037499;28;20192;-81
2023/03/19 11:47:14;;;;;;;6.80;3.60;;;18.20;47.50;;;;;;5031101;28;20185;-83
2023/03/19 11:49:40;;;;;;;6.90;3.90;;;17.80;49.00;;;;;;5009635;28;21019;-83
2023/03/19 11:52:19;;;;;;;3.40;3.10;;;17.50;47.90;;;;;;5032160;28;20219;-83
2023/03/19 11:54:51;;;;;;;4.97;3.47;;;17.40;49.10;;;;;;5012652;28;20205;-87
2023/03/19 11:57:55;;;;;;;3.70;3.40;;;17.20;50.00;;;;;;5030510;28;20208;-83
2023/03/19 12:00:45;;;;;;;5.30;3.33;;;17.30;47.60;;;;;;4993741;28;20735;-84
2023/03/19 12:03:45;;;;;;;3.57;3.07;;;17.00;49.60;;;;;;5035363;28;20552;-84
2023/03/19 12:06:29;;;;;;;4.30;3.13;;;16.70;50.30;;;;;;5030145;28;20330;-81
2023/03/19 12:09:10;;;;;;;4.00;3.60;;;16.50;50.50;;;;;;5029757;28;20217;-82
2023/03/19 12:11:53;;;;;;;3.63;3.07;;;16.30;50.40;;;;;;5029211;28;20223;-83
2023/03/19 12:14:34;;;;;;;5.00;3.87;;;16.30;52.60;;;;;;5028609;28;20215;-85
2023/03/19 12:17:21;;;;;;;4.67;3.90;;;16.50;51.10;;;;;;5024678;28;20189;-84
2023/03/19 12:19:55;;;;;;;5.93;3.80;;;16.60;51.70;;;;;;5024333;28;20689;-85
2023/03/19 12:22:51;;;;;;;4.10;3.70;;;16.50;51.70;;;;;;5027974;28;20653;-83
2023/03/19 12:25:28;;;;;;;5.53;3.70;;;16.60;53.90;;;;;;5030136;28;20540;-83
2023/03/19 12:28:00;;;;;;;4.40;4.00;;;16.80;55.30;;;;;;5030638;28;20200;-84
2023/03/19 12:30:29;;;;;;;6.43;3.87;;;16.90;53.90;;;;;;5029119;28;20187;-80
2023/03/19 12:32:58;;;;;;;4.53;4.00;;;17.00;52.70;;;;;;5028682;28;20190;-82
2023/03/19 12:35:33;;;;;;;6.03;3.93;;;17.00;54.90;;;;;;5028694;28;20248;-85
2023/03/19 12:38:18;;;;;;;4.43;4.03;;;17.10;54.40;;;;;;5027302;28;20273;-84
2023/03/19 12:41:03;;;;;;;4.20;3.80;;;16.70;52.60;;;;;;5025963;28;20232;-84
2023/03/19 12:43:32;;;;;;;4.10;3.80;;;16.60;51.70;;;;;;5028816;28;20188;-84
2023/03/19 12:46:11;;;;;;;4.37;3.97;;;16.60;52.60;;;;;;5023964;28;21040;-82
2023/03/19 12:49:01;;;;;;;9.27;3.87;;;16.50;51.70;;;;;;5023059;28;20224;-80
2023/03/19 12:51:33;;;;;;;7.37;4.43;;;16.60;52.10;;;;;;5010239;28;20254;-84
2023/03/19 12:54:19;;;;;;;4.87;3.87;;;16.50;52.00;;;;;;5032541;28;20197;-81
2023/03/19 12:56:58;;;;;;;4.93;4.10;;;16.50;52.80;;;;;;5029137;28;20229;-83
2023/03/19 12:59:45;;;;;;;5.20;4.13;;;16.50;52.70;;;;;;5026794;28;20216;-84